createdAt,value
2019-04-10T00:02:02.035Z,53
2019-04-10T00:07:19.444Z,57
2019-04-10T00:12:02.206Z,52
2019-04-10T00:17:02.841Z,52
2019-04-10T00:22:04.325Z,51
2019-04-10T00:27:02.224Z,51
2019-04-10T00:32:03.824Z,51
2019-04-10T00:37:01.978Z,57
2019-04-10T00:42:03.104Z,54
2019-04-10T00:47:02.553Z,51
2019-04-10T00:52:02.031Z,52
2019-04-10T00:57:01.948Z,57
2019-04-10T01:02:02.670Z,58
2019-04-10T01:07:02.333Z,53
2019-04-10T01:12:01.938Z,53
2019-04-10T01:17:02.264Z,52
2019-04-10T01:22:03.143Z,53
2019-04-10T01:27:01.983Z,54
2019-04-10T01:32:01.900Z,52
2019-04-10T01:37:02.818Z,53
2019-04-10T01:42:01.954Z,52
2019-04-10T01:47:02.688Z,55
2019-04-10T01:52:01.934Z,52
2019-04-10T01:57:02.128Z,55
2019-04-10T02:02:03.159Z,52
2019-04-10T02:07:02.319Z,53
2019-04-10T02:12:02.264Z,48
2019-04-10T02:17:01.900Z,45
2019-04-10T02:22:02.517Z,45
2019-04-10T02:27:02.538Z,47
2019-04-10T02:32:04.227Z,45
2019-04-10T02:37:02.799Z,47
2019-04-10T02:42:03.068Z,43
2019-04-10T02:47:04.347Z,47
2019-04-10T02:52:01.894Z,44
2019-04-10T02:57:05.408Z,42
2019-04-10T03:02:04.430Z,46
2019-04-10T03:07:04.427Z,43
2019-04-10T03:12:01.859Z,41
2019-04-10T03:17:02.156Z,42
2019-04-10T03:22:02.011Z,40
2019-04-10T03:27:01.859Z,39
2019-04-10T03:32:06.667Z,43
2019-04-10T03:37:04.411Z,41
2019-04-10T03:42:01.776Z,42
2019-04-10T03:47:03.014Z,40
2019-04-10T03:52:03.116Z,36
2019-04-10T03:57:02.649Z,36
2019-04-10T04:02:01.767Z,40
2019-04-10T04:07:01.776Z,41
2019-04-10T04:12:02.461Z,36
2019-04-10T04:17:02.041Z,40
2019-04-10T04:22:01.740Z,38
2019-04-10T04:27:02.914Z,39
2019-04-10T04:32:01.730Z,37
2019-04-10T04:37:02.577Z,38
2019-04-10T04:42:01.783Z,36
2019-04-10T04:47:01.718Z,36
2019-04-10T04:52:02.687Z,35
2019-04-10T04:57:01.750Z,34
2019-04-10T05:02:01.711Z,38
2019-04-10T05:07:01.720Z,30
2019-04-10T05:12:02.990Z,34
2019-04-10T05:17:01.887Z,35
2019-04-10T05:22:01.796Z,30
2019-04-10T05:27:01.730Z,34
2019-04-10T05:32:01.677Z,30
2019-04-10T05:37:01.713Z,28
2019-04-10T05:42:02.931Z,30
2019-04-10T05:47:01.698Z,30
2019-04-10T05:52:02.121Z,31
2019-04-10T05:57:01.686Z,31
2019-04-10T06:08:56.410Z,26
2019-04-10T06:13:57.050Z,31
2019-04-10T06:18:57.670Z,31
2019-04-10T06:23:58.409Z,28
2019-04-10T06:28:56.997Z,29
2019-04-10T06:33:56.424Z,30
2019-04-10T06:38:56.434Z,31
2019-04-10T06:43:57.345Z,33
2019-04-10T06:48:56.438Z,37
2019-04-10T06:54:11.694Z,38
2019-04-10T06:58:56.468Z,37
2019-04-10T07:11:11.945Z,44
2019-04-10T07:15:58.636Z,42
2019-04-10T07:21:02.014Z,43
2019-04-10T07:25:56.493Z,42
2019-04-10T07:31:08.557Z,42
2019-04-10T07:35:56.796Z,44
2019-04-10T07:40:56.956Z,45
2019-04-10T07:45:57.520Z,43
2019-04-10T07:50:56.009Z,49
2019-04-10T07:56:14.668Z,47
2019-04-10T08:00:56.858Z,48
2019-04-10T08:05:55.957Z,49
2019-04-10T08:10:55.951Z,57
2019-04-10T08:15:56.455Z,52
2019-04-10T08:20:57.394Z,52
2019-04-10T08:25:56.061Z,51
2019-04-10T08:30:58.908Z,51
2019-04-10T08:35:56.988Z,53
2019-04-10T08:40:56.719Z,54
2019-04-10T08:45:56.942Z,50
2019-04-10T08:50:56.928Z,51
2019-04-10T08:55:56.912Z,51
2019-04-10T09:00:56.741Z,49
2019-04-10T09:05:55.931Z,60
2019-04-10T09:10:55.937Z,69
2019-04-10T09:15:56.327Z,73
2019-04-10T09:20:55.942Z,72
2019-04-10T09:25:55.895Z,69
2019-04-10T09:30:55.903Z,66
2019-04-10T09:35:57.146Z,60
2019-04-10T09:40:55.884Z,58
2019-04-10T09:45:55.910Z,57
2019-04-10T09:50:56.216Z,53
2019-04-10T09:55:56.897Z,51
2019-04-10T10:00:56.650Z,49
2019-04-10T10:05:55.866Z,51
2019-04-10T10:10:55.856Z,49
2019-04-10T10:15:56.897Z,45
2019-04-10T10:20:56.509Z,46
2019-04-10T10:25:55.829Z,45
2019-04-10T10:30:55.856Z,45
2019-04-10T10:35:55.869Z,38
2019-04-10T10:40:57.133Z,41
2019-04-10T10:45:55.821Z,43
2019-04-10T10:50:56.332Z,45
2019-04-10T10:55:56.165Z,40
2019-04-10T11:00:55.823Z,41
2019-04-10T11:05:55.794Z,40
2019-04-10T11:10:59.430Z,39
2019-04-10T11:15:56.384Z,37
2019-04-10T11:23:01.478Z,39
2019-04-10T11:25:57.800Z,37
2019-04-10T11:30:56.253Z,34
2019-04-10T11:35:55.839Z,34
2019-04-10T11:41:00.287Z,35
2019-04-10T11:48:02.317Z,34
2019-04-10T11:51:01.598Z,34
2019-04-10T11:56:05.336Z,32
2019-04-10T12:05:03.296Z,32
2019-04-10T12:15:56.818Z,30
2019-04-10T12:20:55.755Z,36
2019-04-10T12:25:55.788Z,48
2019-04-10T12:30:55.769Z,42
2019-04-10T12:35:56.278Z,41
2019-04-10T12:40:55.773Z,40
2019-04-10T12:45:56.969Z,34
2019-04-10T12:50:55.703Z,36
2019-04-10T12:55:55.752Z,38
2019-04-10T13:00:56.326Z,36
2019-04-10T13:05:55.765Z,40
2019-04-10T13:10:56.177Z,33
2019-04-10T13:15:56.074Z,31
2019-04-10T13:20:55.942Z,32
2019-04-10T13:26:07.661Z,35
2019-04-10T13:30:59.548Z,26
2019-04-10T13:35:55.693Z,28
2019-04-10T13:40:56.482Z,28
2019-04-10T13:45:56.372Z,28
2019-04-10T13:50:57.205Z,33
2019-04-10T13:56:01.074Z,33
2019-04-10T14:00:55.698Z,28
2019-04-10T14:05:57.162Z,32
2019-04-10T14:10:55.701Z,32
2019-04-10T14:15:56.176Z,28
2019-04-10T14:20:55.654Z,34
2019-04-10T14:25:56.118Z,31
2019-04-10T14:30:55.821Z,27
2019-04-10T14:35:55.873Z,30
2019-04-10T14:40:55.680Z,26
2019-04-10T14:45:55.652Z,34
2019-04-10T14:50:55.626Z,31
2019-04-10T14:55:55.722Z,28
2019-04-10T15:00:55.622Z,31
2019-04-10T15:06:01.332Z,32
2019-04-10T15:10:55.627Z,28
2019-04-10T15:15:56.837Z,33
2019-04-10T15:20:56.723Z,28
2019-04-10T15:25:55.677Z,36
2019-04-10T15:30:55.603Z,30
2019-04-10T15:35:55.601Z,28
2019-04-10T15:40:56.912Z,31
2019-04-10T15:45:56.945Z,32
2019-04-10T15:50:56.030Z,31
2019-04-10T15:55:56.063Z,34
2019-04-10T16:00:55.572Z,31
2019-04-10T16:05:55.923Z,26
2019-04-10T16:10:55.587Z,27
2019-04-10T16:19:54.537Z,26
2019-04-10T16:24:55.597Z,31
2019-04-10T16:29:54.344Z,28
2019-04-10T16:34:54.765Z,31
2019-04-10T16:40:08.529Z,31
2019-04-10T16:44:54.370Z,32
2019-04-10T16:49:55.382Z,33
2019-04-10T16:54:55.626Z,32
2019-04-10T16:59:57.452Z,34
2019-04-10T17:04:54.315Z,34
2019-04-10T17:09:54.335Z,33
2019-04-10T17:14:55.636Z,35
2019-04-10T17:20:00.264Z,34
2019-04-10T17:24:54.317Z,36
2019-04-10T17:29:58.206Z,35
2019-04-10T17:34:55.029Z,35
2019-04-10T17:39:55.835Z,30
2019-04-10T17:44:54.325Z,37
2019-04-10T17:49:54.236Z,38
2019-04-10T17:54:55.577Z,42
2019-04-10T17:59:54.593Z,42
2019-04-10T18:04:54.249Z,40
2019-04-10T18:09:54.259Z,46
2019-04-10T18:14:55.673Z,40
2019-04-10T18:19:54.740Z,39
2019-04-10T18:24:54.222Z,40
2019-04-10T18:29:55.317Z,45
2019-04-10T18:35:02.899Z,43
2019-04-10T18:40:01.674Z,43
2019-04-10T18:45:02.029Z,40
2019-04-10T18:50:04.324Z,46
2019-04-10T18:55:01.687Z,44
2019-04-10T19:00:02.128Z,44
2019-04-10T19:05:01.729Z,45
2019-04-10T19:10:02.364Z,42
2019-04-10T19:15:01.667Z,41
2019-04-10T19:20:02.368Z,43
2019-04-10T19:25:03.283Z,44
2019-04-10T19:30:02.913Z,41
2019-04-10T19:35:02.853Z,37
2019-04-10T19:40:03.023Z,36
2019-04-10T19:45:01.993Z,34
2019-04-10T19:50:01.639Z,39
2019-04-10T19:55:01.569Z,36
2019-04-10T20:00:01.617Z,44
2019-04-10T20:13:28.362Z,40
2019-04-10T20:18:28.663Z,39
2019-04-10T20:23:28.327Z,38
2019-04-10T20:28:28.952Z,46
2019-04-10T20:33:28.353Z,35
2019-04-10T20:38:28.305Z,37
2019-04-10T20:43:33.480Z,40
2019-04-10T20:48:28.795Z,40
2019-04-10T20:53:28.348Z,38
2019-04-10T20:58:29.553Z,38
2019-04-10T21:03:28.505Z,37
2019-04-10T21:08:28.278Z,38
2019-04-10T21:13:28.296Z,41
2019-04-10T21:18:29.337Z,45
2019-04-10T21:23:29.420Z,44
2019-04-10T21:28:28.406Z,45
2019-04-10T21:33:28.257Z,45
2019-04-10T21:38:28.274Z,41
2019-04-10T21:43:28.365Z,41
2019-04-10T21:48:28.242Z,42
2019-04-10T21:53:34.022Z,36
2019-04-10T21:58:28.406Z,43
2019-04-10T22:03:29.629Z,46
2019-04-10T22:08:28.494Z,41
2019-04-10T22:13:28.243Z,36
2019-04-10T22:18:28.224Z,40
2019-04-10T22:23:28.805Z,40
2019-04-10T22:28:28.823Z,35
2019-04-10T22:33:28.266Z,39
2019-04-10T22:38:29.474Z,41
2019-04-10T22:43:28.213Z,42
2019-04-10T22:48:28.829Z,37
2019-04-10T22:53:29.027Z,33
2019-04-10T22:58:28.983Z,34
2019-04-10T23:03:28.160Z,38
2019-04-10T23:08:28.413Z,35
2019-04-10T23:13:28.129Z,35
2019-04-10T23:18:28.196Z,32
2019-04-10T23:23:28.151Z,35
2019-04-10T23:28:28.328Z,33
2019-04-10T23:33:28.294Z,35
2019-04-10T23:38:28.152Z,32
2019-04-10T23:43:29.541Z,34
2019-04-10T23:48:28.860Z,33
2019-04-10T23:53:28.941Z,36
2019-04-10T23:58:28.127Z,38
